createdAt,value
2023-03-06T00:01:20.982Z,91.02
2023-03-06T00:03:49.282Z,89.77
2023-03-06T00:06:20.082Z,91.23
2023-03-06T00:08:47.845Z,94.58
2023-03-06T00:11:16.121Z,93.50
2023-03-06T00:13:44.093Z,93.80
2023-03-06T00:16:12.382Z,94.25
2023-03-06T00:18:41.030Z,92.54
2023-03-06T00:21:12.867Z,91.59
2023-03-06T00:23:41.496Z,93.33
2023-03-06T00:26:10.429Z,93.11
2023-03-06T00:28:41.401Z,93.69
2023-03-06T00:31:10.661Z,93.13
2023-03-06T00:33:38.718Z,90.78
2023-03-06T00:36:07.467Z,91.09
2023-03-06T00:38:37.350Z,91.71
2023-03-06T00:41:14.996Z,91.21
2023-03-06T00:43:43.335Z,90.55
2023-03-06T00:46:11.425Z,90.44
2023-03-06T00:48:41.095Z,90.08
2023-03-06T00:51:14.031Z,89.73
2023-03-06T00:53:42.605Z,89.57
2023-03-06T00:56:11.272Z,88.58
2023-03-06T00:58:39.828Z,89.49
2023-03-06T01:01:08.195Z,89.05
2023-03-06T01:03:36.442Z,88.91
2023-03-06T01:06:04.522Z,90.69
2023-03-06T01:08:35.774Z,88.67
2023-03-06T01:11:03.939Z,90.74
2023-03-06T01:13:31.923Z,92.42
2023-03-06T01:16:08.355Z,91.36
2023-03-06T01:18:36.568Z,91.98
2023-03-06T01:21:06.347Z,92.72
2023-03-06T01:23:37.292Z,90.87
2023-03-06T01:26:05.783Z,91.60
2023-03-06T01:28:37.624Z,89.87
2023-03-06T01:31:07.630Z,91.63
2023-03-06T01:33:36.553Z,92.48
2023-03-06T01:36:11.251Z,91.48
2023-03-06T01:38:39.467Z,92.83
2023-03-06T01:41:08.054Z,91.06
2023-03-06T01:43:37.999Z,91.76
2023-03-06T01:46:26.450Z,92.08
2023-03-06T01:48:59.614Z,94.25
2023-03-06T01:51:35.592Z,94.99
2023-03-06T01:54:21.882Z,94.99
2023-03-06T01:56:53.964Z,93.28
2023-03-06T01:59:23.128Z,91.73
2023-03-06T02:01:51.968Z,90.69
2023-03-06T02:04:26.946Z,91.49
2023-03-06T02:06:57.575Z,91.23
2023-03-06T02:09:29.931Z,92.08
2023-03-06T02:12:00.281Z,89.59
2023-03-06T02:14:32.583Z,90.32
2023-03-06T02:17:01.465Z,92.64
2023-03-06T02:19:52.113Z,90.95
2023-03-06T02:22:28.099Z,93.09
2023-03-06T02:25:01.814Z,92.43
2023-03-06T02:27:30.423Z,92.14
2023-03-06T02:29:58.559Z,92.77
2023-03-06T02:32:26.509Z,92.94
2023-03-06T02:34:57.323Z,92.75
2023-03-06T02:37:28.615Z,94.43
2023-03-06T02:40:08.584Z,93.12
2023-03-06T02:42:36.601Z,91.93
2023-03-06T02:45:08.199Z,92.01
2023-03-06T02:47:36.074Z,90.25
2023-03-06T02:50:04.449Z,90.92
2023-03-06T02:52:32.622Z,91.51
2023-03-06T02:55:00.792Z,91.82
2023-03-06T02:57:28.896Z,92.61
2023-03-06T03:00:10.045Z,92.50
2023-03-06T03:02:38.848Z,91.67
2023-03-06T03:05:07.937Z,91.65
2023-03-06T03:07:37.413Z,91.11
2023-03-06T03:10:12.571Z,90.51
2023-03-06T03:12:40.888Z,91.34
2023-03-06T03:15:10.239Z,93.58
2023-03-06T03:17:43.602Z,92.15
2023-03-06T03:20:16.879Z,92.52
2023-03-06T03:22:56.295Z,92.27
2023-03-06T03:25:27.572Z,90.34
2023-03-06T03:27:58.411Z,91.13
2023-03-06T03:30:30.568Z,91.46
2023-03-06T03:32:58.445Z,93.29
2023-03-06T03:35:27.353Z,91.49
2023-03-06T03:37:56.966Z,90.39
2023-03-06T03:40:27.120Z,90.14
2023-03-06T03:42:55.630Z,87.74
2023-03-06T03:45:24.832Z,87.48
2023-03-06T03:47:53.111Z,88.69
2023-03-06T03:50:23.398Z,87.24
2023-03-06T03:52:51.844Z,87.17
2023-03-06T03:55:20.172Z,88.85
2023-03-06T03:57:48.124Z,88.95
2023-03-06T04:00:17.130Z,88.31
2023-03-06T04:02:55.860Z,87.57
2023-03-06T04:05:34.077Z,90.10
2023-03-06T04:08:05.811Z,88.91
2023-03-06T04:10:36.733Z,89.68
2023-03-06T04:13:05.065Z,90.30
2023-03-06T04:15:33.597Z,89.83
2023-03-06T04:18:02.865Z,91.31
2023-03-06T04:20:31.841Z,90.16
2023-03-06T04:23:01.712Z,89.71
2023-03-06T04:25:30.495Z,90.36
2023-03-06T04:28:00.922Z,89.53
2023-03-06T04:30:30.161Z,90.50
2023-03-06T04:32:59.112Z,89.94
2023-03-06T04:35:28.000Z,89.29
2023-03-06T04:38:01.300Z,87.16
2023-03-06T04:40:33.926Z,88.59
2023-03-06T04:43:03.260Z,91.51
2023-03-06T04:45:33.181Z,91.37
2023-03-06T04:48:01.875Z,90.85
2023-03-06T04:50:32.752Z,88.66
2023-03-06T04:53:03.695Z,88.02
2023-03-06T04:55:32.749Z,90.82
2023-03-06T04:58:00.893Z,89.99
2023-03-06T05:00:31.949Z,91.60
2023-03-06T05:03:01.914Z,93.12
2023-03-06T05:05:30.319Z,93.21
2023-03-06T05:07:58.590Z,93.83
2023-03-06T05:10:27.137Z,95.21
2023-03-06T05:12:55.761Z,94.38
2023-03-06T05:15:26.829Z,96.15
2023-03-06T05:17:58.081Z,99.17
2023-03-06T05:20:26.472Z,98.09
2023-03-06T05:22:54.965Z,98.05
2023-03-06T05:25:23.631Z,96.00
2023-03-06T05:27:51.681Z,94.71
2023-03-06T05:30:21.421Z,97.53
2023-03-06T05:32:50.070Z,98.18
2023-03-06T05:35:20.873Z,98.80
2023-03-06T05:37:49.764Z,99.98
2023-03-06T05:40:18.707Z,99.60
2023-03-06T05:42:46.693Z,99.53
2023-03-06T05:45:14.437Z,97.84
2023-03-06T05:47:42.353Z,99.03
2023-03-06T05:50:12.504Z,98.80
2023-03-06T05:52:41.179Z,98.91
2023-03-06T05:55:13.326Z,100.00
2023-03-06T05:57:41.204Z,100.00
2023-03-06T06:00:10.719Z,100.00
2023-03-06T06:02:41.873Z,100.00
2023-03-06T06:05:12.851Z,100.00
2023-03-06T06:07:41.759Z,100.00
2023-03-06T06:10:11.507Z,100.00
2023-03-06T06:12:39.427Z,100.00
2023-03-06T06:15:08.005Z,100.00
2023-03-06T06:17:35.918Z,100.00
2023-03-06T06:20:04.196Z,100.00
2023-03-06T06:22:36.280Z,100.00
2023-03-06T06:25:05.416Z,100.00
2023-03-06T06:27:33.276Z,100.00
2023-03-06T06:30:01.056Z,100.00
2023-03-06T06:32:29.148Z,100.00
2023-03-06T06:34:57.526Z,100.00
2023-03-06T06:37:26.174Z,100.00
2023-03-06T06:39:53.813Z,100.00
2023-03-06T06:42:31.460Z,100.00
2023-03-06T06:45:02.831Z,100.00
2023-03-06T06:47:31.991Z,100.00
2023-03-06T06:50:00.003Z,99.37
2023-03-06T06:52:28.049Z,99.53
2023-03-06T06:54:56.088Z,96.42
2023-03-06T06:57:24.187Z,95.95
2023-03-06T06:59:54.179Z,98.64
2023-03-06T07:02:22.703Z,99.56
2023-03-06T07:05:03.212Z,99.45
2023-03-06T07:07:34.605Z,96.66
2023-03-06T07:10:07.417Z,94.40
2023-03-06T07:12:35.448Z,95.48
2023-03-06T07:15:05.291Z,96.10
2023-03-06T07:17:33.661Z,96.36
2023-03-06T07:20:01.406Z,97.20
2023-03-06T07:22:31.954Z,97.09
2023-03-06T07:25:06.482Z,96.85
2023-03-06T07:27:34.209Z,98.03
2023-03-06T07:30:02.405Z,97.01
2023-03-06T07:32:30.540Z,98.70
2023-03-06T07:35:18.747Z,97.97
2023-03-06T07:37:47.616Z,98.10
2023-03-06T07:40:15.576Z,98.37
2023-03-06T07:42:43.626Z,99.19
2023-03-06T07:45:14.227Z,99.10
2023-03-06T07:47:42.272Z,99.14
2023-03-06T07:50:10.944Z,99.62
2023-03-06T07:52:38.993Z,100.00
2023-03-06T07:55:07.816Z,100.00
2023-03-06T07:57:37.055Z,100.00
2023-03-06T08:00:07.384Z,100.00
2023-03-06T08:02:49.191Z,100.00
2023-03-06T08:05:17.781Z,99.39
2023-03-06T08:07:48.681Z,100.00
2023-03-06T08:10:17.394Z,100.00
2023-03-06T08:12:45.266Z,100.00
2023-03-06T08:15:20.258Z,98.09
2023-03-06T08:17:48.272Z,99.40
2023-03-06T08:20:18.735Z,99.38
2023-03-06T08:22:46.459Z,100.00
2023-03-06T08:25:14.594Z,99.83
2023-03-06T08:27:43.516Z,98.48
2023-03-06T08:30:12.709Z,99.66
2023-03-06T08:32:40.861Z,100.00
2023-03-06T08:35:09.566Z,99.46
2023-03-06T08:37:39.505Z,100.00
2023-03-06T08:40:08.822Z,100.00
2023-03-06T08:42:36.874Z,100.00
2023-03-06T08:45:08.780Z,99.66
2023-03-06T08:47:36.702Z,99.97
2023-03-06T08:50:05.004Z,97.98
2023-03-06T08:52:33.459Z,98.30
2023-03-06T08:55:03.763Z,99.11
2023-03-06T08:57:31.822Z,98.36
2023-03-06T09:00:00.424Z,98.66
2023-03-06T09:02:30.199Z,97.61
2023-03-06T09:04:59.736Z,98.01
2023-03-06T09:07:27.925Z,96.52
2023-03-06T09:09:57.884Z,96.00
2023-03-06T09:12:27.234Z,96.12
2023-03-06T09:14:56.173Z,96.69
2023-03-06T09:17:24.082Z,95.62
2023-03-06T09:19:52.584Z,94.07
2023-03-06T09:22:20.532Z,91.71
2023-03-06T09:24:48.362Z,91.08
2023-03-06T09:27:16.513Z,89.42
2023-03-06T09:29:44.400Z,91.21
2023-03-06T09:32:12.424Z,91.21
2023-03-06T09:34:40.455Z,91.45
2023-03-06T09:37:08.631Z,90.41
2023-03-06T09:39:36.763Z,90.44
2023-03-06T09:42:08.736Z,92.18
2023-03-06T09:44:41.397Z,91.26
2023-03-06T09:47:36.977Z,94.40
2023-03-06T09:50:28.744Z,93.55
2023-03-06T09:53:03.041Z,89.96
2023-03-06T09:55:38.379Z,89.79
2023-03-06T09:58:23.036Z,91.57
2023-03-06T10:01:12.487Z,88.87
2023-03-06T10:03:53.480Z,88.13
2023-03-06T10:06:28.604Z,88.13
2023-03-06T10:08:56.427Z,87.60
2023-03-06T10:11:42.574Z,85.12
2023-03-06T10:14:49.034Z,86.91
2023-03-06T10:17:21.342Z,88.91
2023-03-06T10:19:50.133Z,86.83
2023-03-06T10:22:43.746Z,85.53
2023-03-06T10:25:28.409Z,84.02
2023-03-06T10:28:11.737Z,83.99
2023-03-06T10:30:58.252Z,84.08
2023-03-06T10:33:50.231Z,83.33
2023-03-06T10:36:19.900Z,82.66
2023-03-06T10:38:48.996Z,83.05
2023-03-06T10:41:36.664Z,82.60
2023-03-06T10:44:08.216Z,83.83
2023-03-06T10:46:39.812Z,83.19
2023-03-06T10:49:40.367Z,83.56
2023-03-06T10:52:14.145Z,82.46
2023-03-06T10:54:44.751Z,83.40
2023-03-06T10:57:26.681Z,81.54
2023-03-06T11:00:02.793Z,80.37
2023-03-06T11:02:44.392Z,80.97
2023-03-06T11:05:22.770Z,79.77
2023-03-06T11:08:00.442Z,77.21
2023-03-06T11:10:31.365Z,77.49
2023-03-06T11:13:00.760Z,76.61
2023-03-06T11:15:29.876Z,76.24
2023-03-06T11:18:10.402Z,75.58
2023-03-06T11:20:52.872Z,75.22
2023-03-06T11:23:39.887Z,77.18
2023-03-06T11:26:20.069Z,76.90
2023-03-06T11:29:03.704Z,75.55
2023-03-06T11:31:45.243Z,74.32
2023-03-06T11:34:30.660Z,74.15
2023-03-06T11:37:25.805Z,73.35
2023-03-06T11:40:12.281Z,75.24
2023-03-06T11:42:53.430Z,73.68
2023-03-06T11:45:45.257Z,73.90
2023-03-06T11:48:19.778Z,76.19
2023-03-06T11:51:03.860Z,74.82
2023-03-06T11:53:39.011Z,73.51
2023-03-06T11:56:25.267Z,72.32
2023-03-06T11:59:02.022Z,74.54
2023-03-06T12:01:48.567Z,74.81
2023-03-06T12:04:55.049Z,72.86
2023-03-06T12:07:35.001Z,73.63
2023-03-06T12:10:40.201Z,72.90
2023-03-06T12:13:21.698Z,71.49
2023-03-06T12:16:25.339Z,71.89
2023-03-06T12:19:28.492Z,71.70
2023-03-06T12:22:09.815Z,71.54
2023-03-06T12:25:31.145Z,71.20
2023-03-06T12:28:39.965Z,69.34
2023-03-06T12:31:29.012Z,67.43
2023-03-06T12:34:13.056Z,66.35
2023-03-06T12:36:49.088Z,66.39
2023-03-06T12:39:30.121Z,68.69
2023-03-06T12:42:17.887Z,68.00
2023-03-06T12:45:30.873Z,67.65
2023-03-06T12:48:03.298Z,66.94
2023-03-06T12:50:36.141Z,66.72
2023-03-06T12:53:16.939Z,66.02
2023-03-06T12:55:51.232Z,65.68
2023-03-06T12:58:31.723Z,65.85
2023-03-06T13:01:12.488Z,66.64
2023-03-06T13:03:59.420Z,65.97
2023-03-06T13:11:16.422Z,64.23
2023-03-06T13:13:48.174Z,64.75
2023-03-06T13:16:42.586Z,65.27
2023-03-06T13:24:06.883Z,61.23
2023-03-06T13:26:36.378Z,62.38
2023-03-06T13:47:32.343Z,60.69
2023-03-06T13:50:03.270Z,60.71
2023-03-06T14:07:43.499Z,62.26
2023-03-06T14:16:00.584Z,62.36
2023-03-06T14:29:13.256Z,63.78
2023-03-06T14:32:58.284Z,64.26
2023-03-06T14:35:32.703Z,64.76
2023-03-06T14:43:27.750Z,63.87
2023-03-06T14:46:22.142Z,63.59
2023-03-06T14:48:50.150Z,64.60
2023-03-06T14:51:21.912Z,64.17
2023-03-06T14:54:04.016Z,64.12
2023-03-06T14:56:37.444Z,64.66
2023-03-06T15:04:00.403Z,64.92
2023-03-06T15:25:45.657Z,63.62
2023-03-06T15:29:14.443Z,64.11
2023-03-06T15:31:45.521Z,64.51
2023-03-06T15:35:06.877Z,64.63
2023-03-06T15:37:36.075Z,63.35
2023-03-06T15:40:12.277Z,62.52
2023-03-06T15:42:52.220Z,61.97
2023-03-06T15:45:31.369Z,62.75
2023-03-06T15:53:40.090Z,64.13
2023-03-06T15:56:10.638Z,64.04
2023-03-06T15:58:40.734Z,63.45
2023-03-06T16:01:16.878Z,63.38
2023-03-06T16:03:46.304Z,63.19
2023-03-06T16:06:19.684Z,63.58
2023-03-06T16:08:47.809Z,62.27
2023-03-06T16:11:26.016Z,61.59
2023-03-06T16:13:59.305Z,62.18
2023-03-06T16:16:39.704Z,62.18
2023-03-06T16:19:25.402Z,62.59
2023-03-06T16:21:55.895Z,61.87
2023-03-06T16:24:26.953Z,61.27
2023-03-06T16:26:57.601Z,61.91
2023-03-06T16:29:27.876Z,62.70
2023-03-06T16:36:23.769Z,63.82
2023-03-06T16:39:04.652Z,64.16
2023-03-06T16:41:51.938Z,64.91
2023-03-06T16:44:20.972Z,65.16
2023-03-06T16:46:50.579Z,65.88
2023-03-06T16:49:23.511Z,65.65
2023-03-06T16:52:07.007Z,65.92
2023-03-06T16:54:45.123Z,65.30
2023-03-06T16:57:18.993Z,65.68
2023-03-06T16:59:48.713Z,66.30
2023-03-06T17:02:28.800Z,66.28
2023-03-06T17:04:56.961Z,66.52
2023-03-06T17:07:30.923Z,66.35
2023-03-06T17:10:02.493Z,66.17
2023-03-06T17:12:38.056Z,67.02
2023-03-06T17:15:08.084Z,66.31
2023-03-06T17:17:43.172Z,66.55
2023-03-06T17:20:25.608Z,67.60
2023-03-06T17:22:54.205Z,67.30
2023-03-06T17:25:23.693Z,66.93
2023-03-06T17:30:59.993Z,67.98
2023-03-06T17:33:28.379Z,69.16
2023-03-06T17:40:51.355Z,72.59
2023-03-06T17:43:24.881Z,70.53
2023-03-06T17:45:52.510Z,69.67
2023-03-06T17:48:21.617Z,69.56
2023-03-06T17:50:56.982Z,69.79
2023-03-06T17:53:25.849Z,69.98
2023-03-06T17:55:54.531Z,70.38
2023-03-06T17:58:25.459Z,71.97
2023-03-06T18:01:00.209Z,71.04
2023-03-06T18:03:36.817Z,71.35
2023-03-06T18:06:09.718Z,71.25
2023-03-06T23:03:53.945Z,86.34
2023-03-06T23:06:31.073Z,88.42
2023-03-06T23:09:08.583Z,88.38
2023-03-06T23:11:55.136Z,88.69
2023-03-06T23:14:41.848Z,90.79
2023-03-06T23:17:28.531Z,92.03
2023-03-06T23:20:15.315Z,90.18
2023-03-06T23:23:04.860Z,89.16
2023-03-06T23:25:42.897Z,90.28
2023-03-06T23:28:12.038Z,90.34
2023-03-06T23:30:41.326Z,89.90
2023-03-06T23:33:09.945Z,89.59
2023-03-06T23:35:39.177Z,91.39
2023-03-06T23:38:08.501Z,89.58
2023-03-06T23:40:38.802Z,89.68
2023-03-06T23:43:07.146Z,91.16
2023-03-06T23:45:35.291Z,90.23
2023-03-06T23:48:05.923Z,92.02
2023-03-06T23:50:33.794Z,91.90
2023-03-06T23:53:01.775Z,90.20
2023-03-06T23:55:29.569Z,89.98
2023-03-06T23:57:59.335Z,89.05
